APL Norway — A8NC4 — position and weather

sailwx.info

Track history (hours):
 
Tides and Currents Weather Stations Pressure Air Temp Water Temp Dewpoint Dewpoint Depression Visibility Wind Speed Wind Dir Waves Ship Positions

APL Norway

Last reported at 2017-Nov-10 16:31 UTC. Time now 2017-Nov-21 12:12 UTC.
Position N 01°16' E 103°25'.
Warning: this ship's position is 10 days out of date.

Length 295 m; draft 13.9 m.

Type: Cargo ship. MMSI: 636013456.

Date/timePositionNaut miles runAvg speedWind from/ knotsBaromVisibWave heightAir tempDewpointWater temp
2017-Nov-10 16:31N 01°16' E 103°25'020.1
2017-Nov-10 16:30N 01°16' E 103°25'1019.2
2017-Nov-10 16:00N 01°12' E 103°34'611.9
2017-Nov-10 15:30N 01°13' E 103°40'4 8.2
2017-Nov-10 15:00N 01°15' E 103°43'3 6.1
2017-Nov-10 14:30N 01°16' E 103°46'0 0.9
2017-Nov-10 13:57N 01°15' E 103°47'0 0.0
2017-Nov-10 13:21N 01°15' E 103°47'0 0.0
2017-Nov-10 13:00N 01°15' E 103°47'0 0.0
2017-Nov-10 12:27N 01°15' E 103°47'0 0.0
2017-Nov-10 12:00N 01°15' E 103°47'0 0.0
2017-Nov-10 11:27N 01°15' E 103°47'0 0.0
2017-Nov-10 10:57N 01°15' E 103°47'0 0.0
2017-Nov-10 10:21N 01°15' E 103°47'0 0.0
2017-Nov-10 09:57N 01°15' E 103°47'0 0.0
2017-Nov-10 09:30N 01°15' E 103°47'0 0.0
2017-Nov-10 08:57N 01°15' E 103°47'0 0.0
2017-Nov-10 08:30N 01°15' E 103°47'0 0.0
2017-Nov-10 07:57N 01°15' E 103°47'0 0.0
2017-Nov-10 07:27N 01°15' E 103°47'0 0.0
2017-Nov-10 06:57N 01°15' E 103°47'0 0.0
2017-Nov-10 06:27N 01°15' E 103°47'0 0.0
2017-Nov-10 05:57N 01°15' E 103°47'0 0.0
2017-Nov-10 05:30N 01°15' E 103°47'0 0.0
2017-Nov-10 05:00N 01°15' E 103°47'0 0.0
2017-Nov-10 04:27N 01°15' E 103°47'0 0.0
2017-Nov-10 04:00N 01°15' E 103°47'0 0.0
2017-Nov-10 03:27N 01°15' E 103°47'0 0.0
2017-Nov-10 03:00N 01°15' E 103°47'0 0.0
2017-Nov-10 02:30N 01°15' E 103°47'0 0.0
2017-Nov-10 01:56N 01°15' E 103°47'0 0.0
2017-Nov-10 01:29N 01°15' E 103°47'0 0.0
2017-Nov-10 00:56N 01°15' E 103°47'0 0.0
2017-Nov-10 00:20N 01°15' E 103°47'0 0.0
2017-Nov-09 23:59N 01°15' E 103°47'0 0.0
2017-Nov-09 23:26N 01°15' E 103°47'0 0.0
2017-Nov-09 22:59N 01°15' E 103°47'0 0.0
2017-Nov-09 22:29N 01°15' E 103°47'0 0.0
2017-Nov-09 21:59N 01°15' E 103°47'0 0.0
2017-Nov-09 21:26N 01°15' E 103°47'0 0.0
2017-Nov-09 20:59N 01°15' E 103°47'0 0.0
2017-Nov-09 20:29N 01°15' E 103°47'0 0.0
2017-Nov-09 19:59N 01°15' E 103°47'0 0.0
2017-Nov-09 19:29N 01°15' E 103°47'0 0.0
2017-Nov-09 18:59N 01°15' E 103°47'0 0.0
2017-Nov-09 18:29N 01°15' E 103°47'0 0.0
2017-Nov-09 17:56N 01°15' E 103°47'0 0.0
2017-Nov-09 17:29N 01°15' E 103°47'0 0.0
2017-Nov-09 16:59N 01°15' E 103°47'0 0.0
2017-Nov-09 16:29N 01°15' E 103°47'0 0.0
2017-Nov-09 15:56N 01°15' E 103°47'0 0.0
2017-Nov-09 15:29N 01°15' E 103°47'0 0.0
2017-Nov-09 14:59N 01°15' E 103°47'0 0.0
2017-Nov-09 14:29N 01°15' E 103°47'0 0.0
2017-Nov-09 13:56N 01°15' E 103°47'0 0.2
2017-Nov-09 13:30N 01°15' E 103°47'0 0.3
2017-Nov-09 13:00N 01°15' E 103°47'1 1.2
2017-Nov-09 12:30N 01°15' E 103°47'0 0.1
2017-Nov-09 12:00N 01°15' E 103°47'0 0.8
2017-Nov-09 11:30N 01°14' E 103°47'1 1.9
2017-Nov-09 11:00N 01°14' E 103°48'3 6.2
2017-Nov-09 10:30N 01°12' E 103°51'4 7.2
2017-Nov-09 10:00N 01°14' E 103°54'4 7.4
2017-Nov-09 09:30N 01°15' E 103°57'510.1
2017-Nov-09 09:00N 01°16' E 104°02'1113.8
2017-Nov-09 08:15N 01°17' E 104°13'  
2017-Nov-06 01:42N 22°04' E 114°22'316.3
2017-Nov-06 01:30N 22°06' E 114°20'1012.3
2017-Nov-06 00:40N 22°12' E 114°11'2 8.3
2017-Nov-06 00:29N 22°13' E 114°10'10 8.7
2017-Nov-05 23:18N 22°21' E 114°03'2 7.7
2017-Nov-05 23:00N 22°21' E 114°01'2 4.2
2017-Nov-05 22:29N 22°21' E 113°58'510.3
2017-Nov-05 22:00N 22°23' E 113°54'5 9.4
2017-Nov-05 21:30N 22°27' E 113°53'1 1.0
2017-Nov-05 20:56N 22°28' E 113°53'0 0.0
2017-Nov-05 20:29N 22°28' E 113°53'0 0.0
2017-Nov-05 19:59N 22°28' E 113°53'0 0.0
2017-Nov-05 19:26N 22°28' E 113°53'0 0.0
2017-Nov-05 18:56N 22°28' E 113°53'0 0.0
2017-Nov-05 18:29N 22°28' E 113°53'0 0.0
2017-Nov-05 17:56N 22°28' E 113°53'0 0.0
2017-Nov-05 17:29N 22°28' E 113°53'0 0.0
2017-Nov-05 16:53N 22°28' E 113°53'0 0.0
2017-Nov-05 16:26N 22°28' E 113°53'0 0.0
2017-Nov-05 15:56N 22°28' E 113°53'0 0.0
2017-Nov-05 15:29N 22°28' E 113°53'0 0.0
2017-Nov-05 14:59N 22°28' E 113°53'0 0.2
2017-Nov-05 14:30N 22°28' E 113°52'3 5.3
2017-Nov-05 14:00N 22°25' E 113°53'1 2.6
2017-Nov-05 13:31N 22°24' E 113°54'3 5.9
2017-Nov-05 13:01N 22°22' E 113°55'610.7
2017-Nov-05 12:30N 22°21' E 114°01'810.6
2017-Nov-05 11:46N 22°16' E 114°07'4 9.8
2017-Nov-05 11:19N 22°13' E 114°11'3 8.1
2017-Nov-05 11:00N 22°10' E 114°12'7 9.2
2017-Nov-05 10:17N 22°08' E 114°19'3 9.7
2017-Nov-05 10:00N 22°08' E 114°22'5 9.8
2017-Nov-05 09:31N 22°08' E 114°27'611.3
2017-Nov-05 09:01N 22°08' E 114°33'713.7
2017-Nov-05 08:30N 22°08' E 114°41'713.4
2017-Nov-05 08:01N 22°09' E 114°48'713.6
2017-Nov-05 07:31N 22°10' E 114°55'713.6
2017-Nov-05 07:00N 22°11' E 115°02'713.7
2017-Nov-05 06:30N 22°12' E 115°09'713.8
2017-Nov-05 06:00N 22°14' E 115°17'713.8
2017-Nov-05 05:30N 22°15' E 115°24'714.0
2017-Nov-05 04:59N 22°17' E 115°32'914.7
2017-Nov-05 04:24N 22°20' E 115°40'17516.8
2017-Nov-04 17:58N 23°51' E 118°23'1418.2
2017-Nov-04 17:12N 24°01' E 118°34'418.2
2017-Nov-04 16:58N 24°04' E 118°37'818.2
2017-Nov-04 16:30N 24°09' E 118°44'7917.8
2017-Nov-04 12:06N 25°02' E 119°48'384 7.8
2017-Nov-02 10:47N 30°49' E 122°54'812.5
2017-Nov-02 10:10N 30°57' E 122°52'3311.5
2017-Nov-02 07:16N 31°08' E 122°15'414.6
2017-Nov-02 06:58N 31°11' E 122°11'714.4
2017-Nov-02 06:28N 31°14' E 122°04'715.2
2017-Nov-02 06:00N 31°15' E 121°55'713.7
2017-Nov-02 05:30N 31°17' E 121°48'713.5
2017-Nov-02 05:00N 31°20' E 121°41'510.8
2017-Nov-02 04:30N 31°23' E 121°35'0 0.8
2017-Nov-02 04:00N 31°23' E 121°35'0 0.1
2017-Nov-02 03:30N 31°23' E 121°35'0 0.1
2017-Nov-02 03:00N 31°23' E 121°35'0 0.0
2017-Nov-02 02:30N 31°23' E 121°35'0 0.0
2017-Nov-02 02:00N 31°23' E 121°35'0 0.0
2017-Nov-02 01:30N 31°23' E 121°35'0 0.2
2017-Nov-02 01:00N 31°23' E 121°35'0 0.1
2017-Nov-02 00:30N 31°23' E 121°35'0 0.0
2017-Nov-02 00:00N 31°23' E 121°35'0 0.0
2017-Nov-01 23:30N 31°23' E 121°35'0 0.0
2017-Nov-01 23:00N 31°23' E 121°35'0 0.0
2017-Nov-01 22:30N 31°23' E 121°35'0 0.0
2017-Nov-01 22:00N 31°23' E 121°35'0 0.0
2017-Nov-01 21:30N 31°23' E 121°35'0 0.0
2017-Nov-01 21:00N 31°23' E 121°35'0 0.0
2017-Nov-01 20:30N 31°23' E 121°35'0 0.0
2017-Nov-01 20:00N 31°23' E 121°35'0 0.0
2017-Nov-01 19:30N 31°23' E 121°35'0 0.0
2017-Nov-01 19:00N 31°23' E 121°35'0 0.0
2017-Nov-01 18:30N 31°23' E 121°35'  
Track history (hours):
 
Tides and Currents Weather Stations Pressure Air Temp Water Temp Dewpoint Dewpoint Depression Visibility Wind Speed Wind Dir Waves Ship Positions

APL Norway

Last reported at 2017-Nov-10 16:31 UTC. Time now 2017-Nov-21 12:12 UTC.
Position N 01°16' E 103°25'.
Warning: this ship's position is 10 days out of date.

Length 295 m; draft 13.9 m.

Type: Cargo ship. MMSI: 636013456.

Date/timePositionNaut miles runAvg speedWind from/ knotsBaromVisibWave heightAir tempDewpointWater temp
2017-Nov-10 16:31N 01°16' E 103°25'020.1
2017-Nov-10 16:30N 01°16' E 103°25'1019.2
2017-Nov-10 16:00N 01°12' E 103°34'611.9
2017-Nov-10 15:30N 01°13' E 103°40'4 8.2
2017-Nov-10 15:00N 01°15' E 103°43'3 6.1
2017-Nov-10 14:30N 01°16' E 103°46'0 0.9
2017-Nov-10 13:57N 01°15' E 103°47'0 0.0
2017-Nov-10 13:21N 01°15' E 103°47'0 0.0
2017-Nov-10 13:00N 01°15' E 103°47'0 0.0
2017-Nov-10 12:27N 01°15' E 103°47'0 0.0
2017-Nov-10 12:00N 01°15' E 103°47'0 0.0
2017-Nov-10 11:27N 01°15' E 103°47'0 0.0
2017-Nov-10 10:57N 01°15' E 103°47'0 0.0
2017-Nov-10 10:21N 01°15' E 103°47'0 0.0
2017-Nov-10 09:57N 01°15' E 103°47'0 0.0
2017-Nov-10 09:30N 01°15' E 103°47'0 0.0
2017-Nov-10 08:57N 01°15' E 103°47'0 0.0
2017-Nov-10 08:30N 01°15' E 103°47'0 0.0
2017-Nov-10 07:57N 01°15' E 103°47'0 0.0
2017-Nov-10 07:27N 01°15' E 103°47'0 0.0
2017-Nov-10 06:57N 01°15' E 103°47'0 0.0
2017-Nov-10 06:27N 01°15' E 103°47'0 0.0
2017-Nov-10 05:57N 01°15' E 103°47'0 0.0
2017-Nov-10 05:30N 01°15' E 103°47'0 0.0
2017-Nov-10 05:00N 01°15' E 103°47'0 0.0
2017-Nov-10 04:27N 01°15' E 103°47'0 0.0
2017-Nov-10 04:00N 01°15' E 103°47'0 0.0
2017-Nov-10 03:27N 01°15' E 103°47'0 0.0
2017-Nov-10 03:00N 01°15' E 103°47'0 0.0
2017-Nov-10 02:30N 01°15' E 103°47'0 0.0
2017-Nov-10 01:56N 01°15' E 103°47'0 0.0
2017-Nov-10 01:29N 01°15' E 103°47'0 0.0
2017-Nov-10 00:56N 01°15' E 103°47'0 0.0
2017-Nov-10 00:20N 01°15' E 103°47'0 0.0
2017-Nov-09 23:59N 01°15' E 103°47'0 0.0
2017-Nov-09 23:26N 01°15' E 103°47'0 0.0
2017-Nov-09 22:59N 01°15' E 103°47'0 0.0
2017-Nov-09 22:29N 01°15' E 103°47'0 0.0
2017-Nov-09 21:59N 01°15' E 103°47'0 0.0
2017-Nov-09 21:26N 01°15' E 103°47'0 0.0
2017-Nov-09 20:59N 01°15' E 103°47'0 0.0
2017-Nov-09 20:29N 01°15' E 103°47'0 0.0
2017-Nov-09 19:59N 01°15' E 103°47'0 0.0
2017-Nov-09 19:29N 01°15' E 103°47'0 0.0
2017-Nov-09 18:59N 01°15' E 103°47'0 0.0
2017-Nov-09 18:29N 01°15' E 103°47'0 0.0
2017-Nov-09 17:56N 01°15' E 103°47'0 0.0
2017-Nov-09 17:29N 01°15' E 103°47'0 0.0
2017-Nov-09 16:59N 01°15' E 103°47'0 0.0
2017-Nov-09 16:29N 01°15' E 103°47'0 0.0
2017-Nov-09 15:56N 01°15' E 103°47'0 0.0
2017-Nov-09 15:29N 01°15' E 103°47'0 0.0
2017-Nov-09 14:59N 01°15' E 103°47'0 0.0
2017-Nov-09 14:29N 01°15' E 103°47'0 0.0
2017-Nov-09 13:56N 01°15' E 103°47'0 0.2
2017-Nov-09 13:30N 01°15' E 103°47'0 0.3
2017-Nov-09 13:00N 01°15' E 103°47'1 1.2
2017-Nov-09 12:30N 01°15' E 103°47'0 0.1
2017-Nov-09 12:00N 01°15' E 103°47'0 0.8
2017-Nov-09 11:30N 01°14' E 103°47'1 1.9
2017-Nov-09 11:00N 01°14' E 103°48'3 6.2
2017-Nov-09 10:30N 01°12' E 103°51'4 7.2
2017-Nov-09 10:00N 01°14' E 103°54'4 7.4
2017-Nov-09 09:30N 01°15' E 103°57'510.1
2017-Nov-09 09:00N 01°16' E 104°02'1113.8
2017-Nov-09 08:15N 01°17' E 104°13'  
2017-Nov-06 01:42N 22°04' E 114°22'316.3
2017-Nov-06 01:30N 22°06' E 114°20'1012.3
2017-Nov-06 00:40N 22°12' E 114°11'2 8.3
2017-Nov-06 00:29N 22°13' E 114°10'10 8.7
2017-Nov-05 23:18N 22°21' E 114°03'2 7.7
2017-Nov-05 23:00N 22°21' E 114°01'2 4.2
2017-Nov-05 22:29N 22°21' E 113°58'510.3
2017-Nov-05 22:00N 22°23' E 113°54'5 9.4
2017-Nov-05 21:30N 22°27' E 113°53'1 1.0
2017-Nov-05 20:56N 22°28' E 113°53'0 0.0
2017-Nov-05 20:29N 22°28' E 113°53'0 0.0
2017-Nov-05 19:59N 22°28' E 113°53'0 0.0
2017-Nov-05 19:26N 22°28' E 113°53'0 0.0
2017-Nov-05 18:56N 22°28' E 113°53'0 0.0
2017-Nov-05 18:29N 22°28' E 113°53'0 0.0
2017-Nov-05 17:56N 22°28' E 113°53'0 0.0
2017-Nov-05 17:29N 22°28' E 113°53'0 0.0
2017-Nov-05 16:53N 22°28' E 113°53'0 0.0
2017-Nov-05 16:26N 22°28' E 113°53'0 0.0
2017-Nov-05 15:56N 22°28' E 113°53'0 0.0
2017-Nov-05 15:29N 22°28' E 113°53'0 0.0
2017-Nov-05 14:59N 22°28' E 113°53'0 0.2
2017-Nov-05 14:30N 22°28' E 113°52'3 5.3
2017-Nov-05 14:00N 22°25' E 113°53'1 2.6
2017-Nov-05 13:31N 22°24' E 113°54'3 5.9
2017-Nov-05 13:01N 22°22' E 113°55'610.7
2017-Nov-05 12:30N 22°21' E 114°01'810.6
2017-Nov-05 11:46N 22°16' E 114°07'4 9.8
2017-Nov-05 11:19N 22°13' E 114°11'3 8.1
2017-Nov-05 11:00N 22°10' E 114°12'7 9.2
2017-Nov-05 10:17N 22°08' E 114°19'3 9.7
2017-Nov-05 10:00N 22°08' E 114°22'5 9.8
2017-Nov-05 09:31N 22°08' E 114°27'611.3
2017-Nov-05 09:01N 22°08' E 114°33'713.7
2017-Nov-05 08:30N 22°08' E 114°41'713.4
2017-Nov-05 08:01N 22°09' E 114°48'713.6
2017-Nov-05 07:31N 22°10' E 114°55'713.6
2017-Nov-05 07:00N 22°11' E 115°02'713.7
2017-Nov-05 06:30N 22°12' E 115°09'713.8
2017-Nov-05 06:00N 22°14' E 115°17'713.8
2017-Nov-05 05:30N 22°15' E 115°24'714.0
2017-Nov-05 04:59N 22°17' E 115°32'914.7
2017-Nov-05 04:24N 22°20' E 115°40'17516.8
2017-Nov-04 17:58N 23°51' E 118°23'1418.2
2017-Nov-04 17:12N 24°01' E 118°34'418.2
2017-Nov-04 16:58N 24°04' E 118°37'818.2
2017-Nov-04 16:30N 24°09' E 118°44'7917.8
2017-Nov-04 12:06N 25°02' E 119°48'384 7.8
2017-Nov-02 10:47N 30°49' E 122°54'812.5
2017-Nov-02 10:10N 30°57' E 122°52'3311.5
2017-Nov-02 07:16N 31°08' E 122°15'414.6
2017-Nov-02 06:58N 31°11' E 122°11'714.4
2017-Nov-02 06:28N 31°14' E 122°04'715.2
2017-Nov-02 06:00N 31°15' E 121°55'713.7
2017-Nov-02 05:30N 31°17' E 121°48'713.5
2017-Nov-02 05:00N 31°20' E 121°41'510.8
2017-Nov-02 04:30N 31°23' E 121°35'0 0.8
2017-Nov-02 04:00N 31°23' E 121°35'0 0.1
2017-Nov-02 03:30N 31°23' E 121°35'0 0.1
2017-Nov-02 03:00N 31°23' E 121°35'0 0.0
2017-Nov-02 02:30N 31°23' E 121°35'0 0.0
2017-Nov-02 02:00N 31°23' E 121°35'0 0.0
2017-Nov-02 01:30N 31°23' E 121°35'0 0.2
2017-Nov-02 01:00N 31°23' E 121°35'0 0.1
2017-Nov-02 00:30N 31°23' E 121°35'0 0.0
2017-Nov-02 00:00N 31°23' E 121°35'0 0.0
2017-Nov-01 23:30N 31°23' E 121°35'0 0.0
2017-Nov-01 23:00N 31°23' E 121°35'0 0.0
2017-Nov-01 22:30N 31°23' E 121°35'0 0.0
2017-Nov-01 22:00N 31°23' E 121°35'0 0.0
2017-Nov-01 21:30N 31°23' E 121°35'0 0.0
2017-Nov-01 21:00N 31°23' E 121°35'0 0.0
2017-Nov-01 20:30N 31°23' E 121°35'0 0.0
2017-Nov-01 20:00N 31°23' E 121°35'0 0.0
2017-Nov-01 19:30N 31°23' E 121°35'0 0.0
2017-Nov-01 19:00N 31°23' E 121°35'0 0.0
2017-Nov-01 18:30N 31°23' E 121°35'  

Dump ship's entire track history